createdAt,value
2022-08-18T00:01:26.155Z,99047.00
2022-08-18T00:04:03.023Z,99043.00
2022-08-18T00:06:32.200Z,99042.00
2022-08-18T00:09:05.743Z,99041.00
2022-08-18T00:11:41.157Z,99047.00
2022-08-18T00:14:21.350Z,99037.00
2022-08-18T00:16:54.299Z,99039.00
2022-08-18T00:19:43.687Z,99044.00
2022-08-18T00:22:15.659Z,99036.00
2022-08-18T00:24:49.084Z,99036.00
2022-08-18T00:27:26.149Z,99038.00
2022-08-18T00:29:59.447Z,99035.00
2022-08-18T00:32:33.636Z,99026.00
2022-08-18T00:35:09.770Z,99035.00
2022-08-18T00:37:37.835Z,99028.00
2022-08-18T00:40:12.368Z,99031.00
2022-08-18T00:42:46.092Z,99027.00
2022-08-18T00:45:17.389Z,99032.00
2022-08-18T00:47:45.398Z,99037.00
2022-08-18T00:50:20.206Z,99033.00
2022-08-18T00:52:54.692Z,99036.00
2022-08-18T00:55:27.216Z,99033.00
2022-08-18T00:58:01.766Z,99054.00
2022-08-18T01:00:30.012Z,99049.00
2022-08-18T01:03:02.968Z,99052.00
2022-08-18T01:05:40.818Z,99053.00
2022-08-18T01:08:14.315Z,99055.00
2022-08-18T01:10:44.880Z,99068.00
2022-08-18T01:13:13.026Z,99058.00
2022-08-18T01:15:41.347Z,99052.00
2022-08-18T01:18:38.158Z,99050.00
2022-08-18T01:21:31.018Z,99051.00
2022-08-18T01:24:03.930Z,99053.00
2022-08-18T01:26:35.444Z,99061.00
2022-08-18T01:29:11.607Z,99056.00
2022-08-18T01:31:54.820Z,99044.00
2022-08-18T01:34:27.493Z,99050.00
2022-08-18T01:36:56.613Z,99033.00
2022-08-18T01:41:23.005Z,99031.00
2022-08-18T01:42:17.207Z,99037.00
2022-08-18T01:44:47.801Z,99041.00
2022-08-18T01:47:17.114Z,99037.00
2022-08-18T01:49:45.810Z,99044.00
2022-08-18T01:52:19.466Z,99041.00
2022-08-18T01:54:49.791Z,99039.00
2022-08-18T01:57:20.294Z,99032.00
2022-08-18T01:59:48.744Z,99037.00
2022-08-18T02:02:24.280Z,99039.00
2022-08-18T02:04:56.482Z,99033.00
2022-08-18T02:07:27.941Z,99040.00
2022-08-18T02:10:07.127Z,99040.00
2022-08-18T02:12:40.821Z,99039.00
2022-08-18T02:15:11.084Z,99029.00
2022-08-18T02:17:40.464Z,99033.00
2022-08-18T02:20:12.713Z,99040.00
2022-08-18T02:22:41.896Z,99026.00
2022-08-18T02:25:13.494Z,99040.00
2022-08-18T02:27:41.607Z,99042.00
2022-08-18T02:30:14.022Z,99042.00
2022-08-18T02:32:42.644Z,99042.00
2022-08-18T02:35:12.257Z,99034.00
2022-08-18T02:37:42.166Z,99032.00
2022-08-18T02:40:14.883Z,99035.00
2022-08-18T02:42:44.408Z,99027.00
2022-08-18T02:45:14.304Z,99037.00
2022-08-18T02:47:44.587Z,99028.00
2022-08-18T02:50:13.886Z,99020.00
2022-08-18T02:52:41.858Z,99020.00
2022-08-18T02:55:12.585Z,99015.00
2022-08-18T02:57:44.103Z,99010.00
2022-08-18T03:00:16.065Z,99008.00
2022-08-18T03:02:48.268Z,99005.00
2022-08-18T03:05:16.932Z,99008.00
2022-08-18T03:07:46.759Z,99006.00
2022-08-18T03:10:31.361Z,99001.00
2022-08-18T03:13:01.949Z,99012.00
2022-08-18T03:15:31.784Z,99005.00
2022-08-18T03:18:02.093Z,99016.00
2022-08-18T03:20:31.454Z,99020.00
2022-08-18T03:23:05.903Z,99018.00
2022-08-18T03:25:47.328Z,99022.00
2022-08-18T03:28:17.663Z,99016.00
2022-08-18T03:30:45.832Z,99015.00
2022-08-18T03:33:13.765Z,99008.00
2022-08-18T03:35:42.067Z,99014.00
2022-08-18T03:38:10.096Z,98999.00
2022-08-18T03:40:39.637Z,99012.00
2022-08-18T03:43:38.882Z,99002.00
2022-08-18T03:45:56.055Z,99010.00
2022-08-18T03:48:25.263Z,99003.00
2022-08-18T03:50:53.188Z,99007.00
2022-08-18T03:53:21.222Z,99005.00
2022-08-18T03:55:50.436Z,99006.00
2022-08-18T03:58:18.384Z,99008.00
2022-08-18T04:00:46.297Z,99002.00
2022-08-18T04:03:14.296Z,98999.00
2022-08-18T04:05:42.293Z,98998.00
2022-08-18T04:08:10.265Z,99005.00
2022-08-18T04:10:38.369Z,98999.00
2022-08-18T04:13:07.626Z,99007.00
2022-08-18T04:15:35.611Z,99003.00
2022-08-18T04:18:04.538Z,99006.00
2022-08-18T04:20:33.431Z,98998.00
2022-08-18T04:23:01.561Z,99006.00
2022-08-18T04:25:32.904Z,99008.00
2022-08-18T04:28:03.389Z,99001.00
2022-08-18T04:30:32.812Z,99012.00
2022-08-18T04:33:06.322Z,99010.00
2022-08-18T04:35:34.221Z,99009.00
2022-08-18T04:38:02.129Z,99014.00
2022-08-18T04:40:33.298Z,99011.00
2022-08-18T04:43:01.772Z,99010.00
2022-08-18T04:45:30.169Z,99018.00
2022-08-18T04:47:59.399Z,99019.00
2022-08-18T04:50:27.284Z,99017.00
2022-08-18T04:53:15.761Z,99027.00
2022-08-18T04:55:49.361Z,99031.00
2022-08-18T04:58:18.782Z,99029.00
2022-08-18T05:00:47.311Z,99024.00
2022-08-18T05:03:16.537Z,99021.00
2022-08-18T05:05:44.495Z,99028.00
2022-08-18T05:08:12.418Z,99035.00
2022-08-18T05:10:41.461Z,99032.00
2022-08-18T05:13:09.815Z,99043.00
2022-08-18T05:15:59.319Z,99039.00
2022-08-18T05:18:27.428Z,99050.00
2022-08-18T05:20:57.945Z,99041.00
2022-08-18T05:23:29.530Z,99051.00
2022-08-18T05:26:03.641Z,99042.00
2022-08-18T05:28:32.154Z,99050.00
2022-08-18T05:31:00.548Z,99051.00
2022-08-18T05:33:30.005Z,99047.00
2022-08-18T05:36:05.886Z,99038.00
2022-08-18T05:38:54.820Z,99040.00
2022-08-18T05:41:28.823Z,99040.00
2022-08-18T05:43:59.152Z,99051.00
2022-08-18T05:46:41.393Z,99058.00
2022-08-18T05:49:13.413Z,99056.00
2022-08-18T05:51:47.875Z,99052.00
2022-08-18T05:54:35.672Z,99050.00
2022-08-18T05:57:09.005Z,99054.00
2022-08-18T05:59:41.442Z,99047.00
2022-08-18T06:02:28.239Z,99047.00
2022-08-18T06:05:04.749Z,99056.00
2022-08-18T06:07:41.830Z,99054.00
2022-08-18T06:10:12.470Z,99053.00
2022-08-18T06:12:47.075Z,99057.00
2022-08-18T06:15:20.991Z,99059.00
2022-08-18T06:18:32.936Z,99067.00
2022-08-18T06:21:29.347Z,99065.00
2022-08-18T06:24:09.750Z,99069.00
2022-08-18T06:26:51.295Z,99072.00
2022-08-18T06:29:36.973Z,99074.00
2022-08-18T06:32:15.947Z,99073.00
2022-08-18T06:35:04.413Z,99068.00
2022-08-18T06:38:04.495Z,99073.00
2022-08-18T06:40:32.561Z,99071.00
2022-08-18T06:43:02.239Z,99061.00
2022-08-18T06:45:40.149Z,99061.00
2022-08-18T06:48:21.664Z,99062.00
2022-08-18T06:50:54.416Z,99066.00
2022-08-18T06:53:28.099Z,99066.00
2022-08-18T06:55:56.673Z,99062.00
2022-08-18T06:58:30.428Z,99059.00
2022-08-18T07:01:06.247Z,99060.00
2022-08-18T07:03:50.757Z,99063.00
2022-08-18T07:06:32.305Z,99068.00
2022-08-18T07:09:33.743Z,99073.00
2022-08-18T07:12:07.146Z,99080.00
2022-08-18T07:14:46.852Z,99083.00
2022-08-18T07:17:22.164Z,99100.00
2022-08-18T07:19:59.648Z,99096.00
2022-08-18T07:22:33.689Z,99112.00
2022-08-18T07:25:24.449Z,99112.00
2022-08-18T07:27:55.964Z,99103.00
2022-08-18T07:30:34.061Z,99105.00
2022-08-18T07:33:14.798Z,99103.00
2022-08-18T07:35:54.548Z,99097.00
2022-08-18T07:38:42.557Z,99094.00
2022-08-18T07:41:20.335Z,99093.00
2022-08-18T07:44:07.515Z,99099.00
2022-08-18T07:46:46.474Z,99108.00
2022-08-18T07:49:22.663Z,99109.00
2022-08-18T07:51:58.747Z,99108.00
2022-08-18T07:54:50.180Z,99111.00
2022-08-18T07:57:35.374Z,99109.00
2022-08-18T08:00:41.071Z,99111.00
2022-08-18T08:03:38.084Z,99108.00
2022-08-18T08:06:17.406Z,99107.00
2022-08-18T08:08:56.918Z,99097.00
2022-08-18T08:11:44.618Z,99102.00
2022-08-18T08:14:40.151Z,99092.00
2022-08-18T08:17:19.241Z,99088.00
2022-08-18T08:20:15.097Z,99086.00
2022-08-18T08:23:05.769Z,99089.00
2022-08-18T08:25:50.944Z,99092.00
2022-08-18T08:28:40.392Z,99100.00
2022-08-18T08:31:37.791Z,99101.00
2022-08-18T08:34:15.813Z,99108.00
2022-08-18T08:36:47.821Z,99098.00
2022-08-18T08:39:23.784Z,99105.00
2022-08-18T08:42:29.210Z,99103.00
2022-08-18T08:45:00.849Z,99104.00
2022-08-18T08:47:35.664Z,99109.00
2022-08-18T08:50:09.836Z,99101.00
2022-08-18T08:52:46.143Z,99106.00
2022-08-18T08:55:19.829Z,99109.00
2022-08-18T08:57:56.927Z,99108.00
2022-08-18T09:00:26.172Z,99108.00
2022-08-18T09:03:13.628Z,99094.00
2022-08-18T09:05:56.622Z,99102.00
2022-08-18T09:09:07.814Z,99106.00
2022-08-18T09:12:09.801Z,99103.00
2022-08-18T09:15:16.626Z,99095.00
2022-08-18T09:18:05.756Z,99095.00
2022-08-18T09:20:54.434Z,99097.00
2022-08-18T09:23:28.959Z,99097.00
2022-08-18T09:26:01.057Z,99088.00
2022-08-18T09:28:58.066Z,99082.00
2022-08-18T09:31:31.720Z,99082.00
2022-08-18T09:34:38.942Z,99074.00
2022-08-18T09:37:20.312Z,99076.00
2022-08-18T09:40:38.631Z,99084.00
2022-08-18T09:43:20.058Z,99084.00
2022-08-18T09:46:00.190Z,99085.00
2022-08-18T09:48:33.455Z,99076.00
2022-08-18T09:51:35.005Z,99082.00
2022-08-18T09:54:15.107Z,99080.00
2022-08-18T09:57:24.823Z,99074.00
2022-08-18T10:03:26.443Z,99066.00
2022-08-18T10:06:20.676Z,99062.00
2022-08-18T10:09:26.758Z,99062.00
2022-08-18T10:12:49.643Z,99066.00
2022-08-18T10:15:51.089Z,99079.00
2022-08-18T10:18:51.252Z,99080.00
2022-08-18T10:21:31.473Z,99082.00
2022-08-18T10:27:29.137Z,99086.00
2022-08-18T10:29:59.200Z,99085.00
2022-08-18T10:32:54.095Z,99087.00
2022-08-18T10:35:59.553Z,99081.00
2022-08-18T10:38:53.417Z,99083.00
2022-08-18T10:44:29.161Z,99078.00
2022-08-18T10:47:01.054Z,99062.00
2022-08-18T10:49:33.141Z,99068.00
2022-08-18T10:52:27.824Z,99081.00
2022-08-18T10:55:48.227Z,99087.00
2022-08-18T10:58:45.161Z,99078.00
2022-08-18T11:01:32.226Z,99076.00
2022-08-18T11:04:16.012Z,99081.00
2022-08-18T11:07:09.897Z,99087.00
2022-08-18T11:09:41.657Z,99080.00
2022-08-18T11:12:14.843Z,99083.00
2022-08-18T11:15:22.480Z,99078.00
2022-08-18T11:18:10.871Z,99073.00
2022-08-18T11:20:43.016Z,99067.00
2022-08-18T11:23:16.855Z,99072.00
2022-08-18T11:25:45.821Z,99079.00
2022-08-18T11:28:18.727Z,99087.00
2022-08-18T11:30:53.413Z,99096.00
2022-08-18T11:33:24.436Z,99095.00
2022-08-18T11:35:58.456Z,99105.00
2022-08-18T11:38:31.640Z,99105.00
2022-08-18T11:41:33.840Z,99106.00
2022-08-18T11:44:21.007Z,99098.00
2022-08-18T11:46:57.559Z,99105.00
2022-08-18T11:49:34.239Z,99107.00
2022-08-18T11:52:16.942Z,99116.00
2022-08-18T11:54:59.426Z,99119.00
2022-08-18T11:57:59.234Z,99124.00
2022-08-18T12:01:01.573Z,99113.00
2022-08-18T12:03:43.374Z,99120.00
2022-08-18T12:06:26.687Z,99123.00
2022-08-18T12:09:01.737Z,99122.00
2022-08-18T12:11:33.600Z,99118.00
2022-08-18T12:14:31.965Z,99114.00
2022-08-18T12:16:57.422Z,99114.00
2022-08-18T12:19:30.946Z,99120.00
2022-08-18T12:22:03.910Z,99117.00
2022-08-18T12:24:40.174Z,99107.00
2022-08-18T12:29:58.388Z,99102.00
2022-08-18T12:32:46.709Z,99091.00
2022-08-18T12:35:21.937Z,99090.00
2022-08-18T12:38:00.176Z,99090.00
2022-08-18T12:40:39.334Z,99096.00
2022-08-18T12:43:07.463Z,99091.00
2022-08-18T12:45:37.924Z,99086.00
2022-08-18T12:48:06.996Z,99080.00
2022-08-18T12:50:49.753Z,99088.00
2022-08-18T12:53:30.777Z,99093.00
2022-08-18T12:56:10.639Z,99080.00
2022-08-18T12:58:40.529Z,99090.00
2022-08-18T13:01:08.777Z,99087.00
2022-08-18T13:03:36.948Z,99081.00
2022-08-18T13:06:07.060Z,99073.00
2022-08-18T13:08:47.825Z,99078.00
2022-08-18T13:11:21.721Z,99069.00
2022-08-18T13:13:56.265Z,99063.00
2022-08-18T13:16:30.652Z,99054.00
2022-08-18T13:19:06.975Z,99043.00
2022-08-18T13:21:41.164Z,99039.00
2022-08-18T13:24:10.477Z,99029.00
2022-08-18T13:26:45.666Z,99021.00
2022-08-18T13:29:17.576Z,99027.00
2022-08-18T13:31:55.541Z,99028.00
2022-08-18T13:34:29.775Z,99033.00
2022-08-18T13:36:59.491Z,99042.00
2022-08-18T13:39:34.133Z,99040.00
2022-08-18T13:42:21.495Z,99047.00
2022-08-18T13:44:54.872Z,99042.00
2022-08-18T13:47:23.472Z,99034.00
2022-08-18T13:49:57.946Z,99024.00
2022-08-18T13:52:35.643Z,99017.00
2022-08-18T13:55:17.667Z,99041.00
2022-08-18T13:57:48.450Z,99042.00
2022-08-18T14:00:29.791Z,99038.00
2022-08-18T14:03:03.295Z,99037.00
2022-08-18T14:05:36.217Z,99043.00
2022-08-18T14:08:19.809Z,99036.00
2022-08-18T14:10:51.829Z,99030.00
2022-08-18T14:13:24.534Z,99020.00
2022-08-18T14:15:54.942Z,99017.00
2022-08-18T14:18:28.980Z,99010.00
2022-08-18T14:21:16.871Z,99014.00
2022-08-18T14:24:10.271Z,99019.00
2022-08-18T14:26:51.184Z,99025.00
2022-08-18T14:29:46.717Z,99021.00
2022-08-18T14:32:09.309Z,99023.00
2022-08-18T14:34:50.614Z,99021.00
2022-08-18T14:37:19.440Z,99025.00
2022-08-18T14:39:53.803Z,99032.00
2022-08-18T14:42:33.079Z,99024.00
2022-08-18T14:45:26.351Z,99013.00
2022-08-18T14:47:59.280Z,99018.00
2022-08-18T14:50:27.678Z,99013.00
2022-08-18T14:52:55.717Z,99014.00
2022-08-18T14:55:25.231Z,99001.00
2022-08-18T14:57:54.941Z,99004.00
2022-08-18T15:00:27.970Z,99001.00
2022-08-18T15:02:57.420Z,98987.00
2022-08-18T15:05:33.811Z,98995.00
2022-08-18T15:08:04.674Z,98986.00
2022-08-18T15:10:34.290Z,98996.00
2022-08-18T15:13:03.696Z,98985.00
2022-08-18T15:15:50.573Z,98984.00
2022-08-18T15:18:22.496Z,98987.00
2022-08-18T15:21:10.416Z,98988.00
2022-08-18T15:24:18.999Z,98992.00
2022-08-18T15:26:58.031Z,98987.00
2022-08-18T15:29:31.890Z,98989.00
2022-08-18T15:32:05.146Z,98992.00
2022-08-18T15:34:46.034Z,98992.00
2022-08-18T15:37:16.042Z,98984.00
2022-08-18T15:39:51.974Z,98974.00
2022-08-18T15:42:25.192Z,98969.00
2022-08-18T15:44:53.898Z,98967.00
2022-08-18T15:47:25.162Z,98966.00
2022-08-18T15:49:54.975Z,98952.00
2022-08-18T15:52:26.182Z,98951.00
2022-08-18T15:54:58.368Z,98941.00
2022-08-18T15:57:39.571Z,98940.00
2022-08-18T16:00:12.412Z,98945.00
2022-08-18T16:02:44.622Z,98939.00
2022-08-18T16:05:18.051Z,98939.00
2022-08-18T16:07:47.459Z,98942.00
2022-08-18T16:10:18.070Z,98938.00
2022-08-18T16:12:48.670Z,98936.00
2022-08-18T16:15:19.612Z,98933.00
2022-08-18T16:17:51.528Z,98926.00
2022-08-18T16:20:23.510Z,98929.00
2022-08-18T16:22:53.304Z,98927.00
2022-08-18T16:25:22.209Z,98921.00
2022-08-18T16:27:54.219Z,98918.00
2022-08-18T16:30:26.472Z,98918.00
2022-08-18T16:32:55.495Z,98913.00
2022-08-18T16:35:24.113Z,98915.00
2022-08-18T16:37:52.511Z,98915.00
2022-08-18T16:40:21.676Z,98909.00
2022-08-18T16:42:56.296Z,98912.00
2022-08-18T16:45:24.419Z,98905.00
2022-08-18T16:47:52.417Z,98909.00
2022-08-18T16:50:20.584Z,98907.00
2022-08-18T16:52:48.602Z,98900.00
2022-08-18T16:55:16.617Z,98895.00
2022-08-18T16:58:03.673Z,98888.00
2022-08-18T17:00:54.634Z,98893.00
2022-08-18T17:03:41.757Z,98899.00
2022-08-18T17:06:13.784Z,98890.00
2022-08-18T17:08:43.053Z,98890.00
2022-08-18T17:11:14.727Z,98889.00
2022-08-18T17:13:43.909Z,98888.00
2022-08-18T17:16:14.379Z,98896.00
2022-08-18T17:18:43.434Z,98891.00
2022-08-18T17:21:17.709Z,98898.00
2022-08-18T17:23:46.502Z,98893.00
2022-08-18T17:26:24.508Z,98889.00
2022-08-18T17:29:01.891Z,98887.00
2022-08-18T17:31:32.244Z,98890.00
2022-08-18T17:34:08.295Z,98892.00
2022-08-18T17:36:53.791Z,98898.00
2022-08-18T17:39:31.678Z,98892.00
2022-08-18T17:42:17.381Z,98883.00
2022-08-18T17:44:52.267Z,98891.00
2022-08-18T17:47:33.324Z,98899.00
2022-08-18T17:50:41.433Z,98900.00
2022-08-18T17:53:11.497Z,98899.00
2022-08-18T17:55:46.892Z,98903.00
2022-08-18T17:58:26.940Z,98904.00
2022-08-18T18:00:55.086Z,98903.00
2022-08-18T18:03:24.648Z,98897.00
2022-08-18T18:06:01.333Z,98903.00
2022-08-18T18:08:53.469Z,98904.00
2022-08-18T18:11:32.075Z,98908.00
2022-08-18T18:14:02.018Z,98907.00
2022-08-18T18:16:35.216Z,98913.00
2022-08-18T18:19:13.221Z,98903.00
2022-08-18T18:21:53.348Z,98905.00
2022-08-18T18:24:33.347Z,98908.00
2022-08-18T18:27:02.865Z,98914.00
2022-08-18T18:29:38.070Z,98914.00
2022-08-18T18:32:25.139Z,98914.00
2022-08-18T18:35:16.114Z,98918.00
2022-08-18T18:37:55.261Z,98916.00
2022-08-18T18:40:33.167Z,98903.00
2022-08-18T18:43:21.862Z,98908.00
2022-08-18T18:46:29.894Z,98905.00
2022-08-18T18:49:18.896Z,98921.00
2022-08-18T18:52:03.738Z,98923.00
2022-08-18T18:55:01.470Z,98928.00
2022-08-18T18:57:41.971Z,98934.00
2022-08-18T19:00:20.901Z,98939.00
2022-08-18T19:03:04.484Z,98942.00
2022-08-18T19:05:39.227Z,98942.00
2022-08-18T19:08:33.173Z,98937.00
2022-08-18T19:11:15.711Z,98927.00
2022-08-18T19:13:54.410Z,98934.00
2022-08-18T19:16:29.662Z,98932.00
2022-08-18T19:19:35.871Z,98922.00
2022-08-18T19:22:07.019Z,98904.00
2022-08-18T19:24:46.493Z,98902.00
2022-08-18T19:27:28.119Z,98914.00
2022-08-18T19:30:03.044Z,98928.00
2022-08-18T19:32:42.472Z,98938.00
2022-08-18T19:35:19.596Z,98957.00
2022-08-18T19:38:14.178Z,98986.00
2022-08-18T19:40:50.491Z,99001.00
2022-08-18T19:43:29.710Z,99002.00
2022-08-18T19:46:10.535Z,98973.00
2022-08-18T19:48:51.469Z,98978.00
2022-08-18T19:51:29.703Z,98992.00
2022-08-18T19:54:37.176Z,99000.00
2022-08-18T19:57:26.029Z,98991.00
2022-08-18T20:00:21.519Z,98975.00
2022-08-18T20:03:12.350Z,98974.00
2022-08-18T20:05:52.426Z,98971.00
2022-08-18T20:09:04.125Z,98950.00
2022-08-18T20:12:14.377Z,98936.00
2022-08-18T20:14:43.677Z,98923.00
2022-08-18T20:17:21.653Z,98907.00
2022-08-18T20:20:15.405Z,98904.00
2022-08-18T20:22:47.465Z,98903.00
2022-08-18T20:25:43.339Z,98898.00
2022-08-18T20:28:34.736Z,98903.00
2022-08-18T20:31:15.830Z,98897.00
2022-08-18T20:34:03.947Z,98886.00
2022-08-18T20:36:36.804Z,98892.00
2022-08-18T20:39:40.556Z,98882.00
2022-08-18T20:42:29.944Z,98875.00
2022-08-18T20:45:08.391Z,98870.00
2022-08-18T20:48:00.031Z,98864.00
2022-08-18T20:51:00.380Z,98861.00
2022-08-18T20:54:13.678Z,98864.00
2022-08-18T20:56:50.651Z,98866.00
2022-08-18T20:59:25.695Z,98883.00
2022-08-18T21:01:58.848Z,98880.00
2022-08-18T21:04:57.778Z,98879.00
2022-08-18T21:07:37.391Z,98878.00
2022-08-18T21:10:18.816Z,98869.00
2022-08-18T21:12:53.509Z,98883.00
2022-08-18T21:15:25.026Z,98887.00
2022-08-18T21:18:02.704Z,98899.00
2022-08-18T21:20:32.945Z,98885.00
2022-08-18T21:23:08.639Z,98892.00
2022-08-18T21:25:37.755Z,98881.00
2022-08-18T21:28:07.464Z,98880.00
2022-08-18T21:30:35.503Z,98867.00
2022-08-18T21:35:59.152Z,98868.00
2022-08-18T21:38:30.426Z,98859.00
2022-08-18T21:41:01.462Z,98858.00
2022-08-18T21:43:49.057Z,98851.00
2022-08-18T21:46:27.281Z,98854.00
2022-08-18T21:48:59.512Z,98846.00
2022-08-18T21:51:33.463Z,98827.00
2022-08-18T21:54:02.415Z,98816.00
2022-08-18T21:56:34.181Z,98805.00
2022-08-18T21:59:09.537Z,98802.00
2022-08-18T22:01:49.147Z,98804.00
2022-08-18T22:04:32.001Z,98808.00
2022-08-18T22:07:07.790Z,98811.00
2022-08-18T22:10:21.360Z,98813.00
2022-08-18T22:13:11.701Z,98835.00
2022-08-18T22:15:44.598Z,98843.00
2022-08-18T22:18:36.701Z,98846.00
2022-08-18T22:21:11.681Z,98842.00
2022-08-18T22:24:04.818Z,98835.00
2022-08-18T22:26:36.584Z,98831.00
2022-08-18T22:29:19.772Z,98830.00
2022-08-18T22:31:51.175Z,98818.00
2022-08-18T22:34:27.066Z,98811.00
2022-08-18T22:37:00.613Z,98814.00
2022-08-18T22:39:34.806Z,98812.00
2022-08-18T22:42:05.121Z,98821.00
2022-08-18T22:44:33.417Z,98822.00
2022-08-18T22:47:03.981Z,98833.00
2022-08-18T22:49:35.856Z,98839.00
2022-08-18T22:52:13.776Z,98844.00
2022-08-18T22:54:43.495Z,98851.00
2022-08-18T22:57:11.717Z,98881.00
2022-08-18T22:59:42.645Z,98902.00
2022-08-18T23:02:11.502Z,98892.00
2022-08-18T23:04:39.601Z,98881.00
2022-08-18T23:07:07.897Z,98899.00
2022-08-18T23:09:39.576Z,98903.00
2022-08-18T23:12:14.467Z,98897.00
2022-08-18T23:14:46.174Z,98890.00
2022-08-18T23:17:15.159Z,98876.00
2022-08-18T23:19:43.750Z,98887.00
2022-08-18T23:22:12.375Z,98887.00
2022-08-18T23:24:41.407Z,98882.00
2022-08-18T23:27:10.749Z,98888.00
2022-08-18T23:29:39.715Z,98873.00
2022-08-18T23:32:08.320Z,98864.00
2022-08-18T23:34:37.035Z,98865.00
2022-08-18T23:37:09.560Z,98855.00
2022-08-18T23:39:39.480Z,98866.00
2022-08-18T23:42:13.234Z,98867.00
2022-08-18T23:44:43.255Z,98873.00
2022-08-18T23:47:11.244Z,98871.00
2022-08-18T23:49:39.510Z,98874.00
2022-08-18T23:52:09.588Z,98807.00
2022-08-18T23:54:37.917Z,98864.00
2022-08-18T23:57:06.560Z,98844.00
2022-08-18T23:59:36.601Z,98847.00
